sensor_id;sensor_type;location;lat;lon;timestamp;P1;durP1;ratioP1;P2;durP2;ratioP2
45940;SDS011;31858;46.008;8.978;2024-03-08T00:09:53;25.05;;;17.73;;
45940;SDS011;31858;46.008;8.978;2024-03-08T00:19:55;26.70;;;20.20;;
45940;SDS011;31858;46.008;8.978;2024-03-08T00:29:58;29.88;;;21.50;;
45940;SDS011;31858;46.008;8.978;2024-03-08T00:40:00;28.35;;;21.85;;
45940;SDS011;31858;46.008;8.978;2024-03-08T00:50:04;33.15;;;22.95;;
45940;SDS011;31858;46.008;8.978;2024-03-08T01:00:06;30.70;;;25.63;;
45940;SDS011;31858;46.008;8.978;2024-03-08T01:10:13;31.77;;;22.83;;
45940;SDS011;31858;46.008;8.978;2024-03-08T01:20:14;33.72;;;25.52;;
45940;SDS011;31858;46.008;8.978;2024-03-08T01:30:19;31.77;;;24.42;;
45940;SDS011;31858;46.008;8.978;2024-03-08T01:40:20;29.85;;;24.60;;
45940;SDS011;31858;46.008;8.978;2024-03-08T01:50:24;34.28;;;25.10;;
45940;SDS011;31858;46.008;8.978;2024-03-08T02:00:25;33.47;;;23.35;;
45940;SDS011;31858;46.008;8.978;2024-03-08T02:10:31;35.78;;;25.80;;
45940;SDS011;31858;46.008;8.978;2024-03-08T02:20:34;35.42;;;25.23;;
45940;SDS011;31858;46.008;8.978;2024-03-08T02:30:36;32.33;;;23.98;;
45940;SDS011;31858;46.008;8.978;2024-03-08T02:40:39;36.50;;;27.48;;
45940;SDS011;31858;46.008;8.978;2024-03-08T02:50:41;38.40;;;27.42;;
45940;SDS011;31858;46.008;8.978;2024-03-08T03:00:45;32.63;;;25.58;;
45940;SDS011;31858;46.008;8.978;2024-03-08T03:10:47;35.38;;;26.70;;
45940;SDS011;31858;46.008;8.978;2024-03-08T03:20:50;38.90;;;28.55;;
45940;SDS011;31858;46.008;8.978;2024-03-08T03:30:52;44.40;;;28.08;;
45940;SDS011;31858;46.008;8.978;2024-03-08T03:40:54;35.33;;;25.25;;
45940;SDS011;31858;46.008;8.978;2024-03-08T03:51:04;36.40;;;25.33;;
45940;SDS011;31858;46.008;8.978;2024-03-08T04:01:07;36.55;;;27.00;;
45940;SDS011;31858;46.008;8.978;2024-03-08T04:11:09;36.40;;;24.58;;
45940;SDS011;31858;46.008;8.978;2024-03-08T04:21:12;34.85;;;24.73;;
45940;SDS011;31858;46.008;8.978;2024-03-08T04:31:14;33.53;;;24.40;;
45940;SDS011;31858;46.008;8.978;2024-03-08T04:41:17;31.00;;;22.52;;
45940;SDS011;31858;46.008;8.978;2024-03-08T04:51:20;31.83;;;24.75;;
45940;SDS011;31858;46.008;8.978;2024-03-08T05:01:23;36.83;;;25.02;;
45940;SDS011;31858;46.008;8.978;2024-03-08T05:11:24;33.65;;;24.20;;
45940;SDS011;31858;46.008;8.978;2024-03-08T05:21:27;35.45;;;24.73;;
45940;SDS011;31858;46.008;8.978;2024-03-08T05:31:30;35.42;;;22.63;;
45940;SDS011;31858;46.008;8.978;2024-03-08T05:41:38;35.15;;;24.17;;
45940;SDS011;31858;46.008;8.978;2024-03-08T05:51:40;34.33;;;23.15;;
45940;SDS011;31858;46.008;8.978;2024-03-08T06:01:43;35.65;;;25.95;;
45940;SDS011;31858;46.008;8.978;2024-03-08T06:11:46;37.65;;;24.85;;
45940;SDS011;31858;46.008;8.978;2024-03-08T06:21:49;38.03;;;25.85;;
45940;SDS011;31858;46.008;8.978;2024-03-08T06:31:50;38.00;;;25.50;;
45940;SDS011;31858;46.008;8.978;2024-03-08T06:41:55;33.40;;;23.48;;
45940;SDS011;31858;46.008;8.978;2024-03-08T06:51:56;37.33;;;24.85;;
45940;SDS011;31858;46.008;8.978;2024-03-08T07:01:59;41.50;;;27.15;;
45940;SDS011;31858;46.008;8.978;2024-03-08T07:12:01;34.50;;;24.10;;
45940;SDS011;31858;46.008;8.978;2024-03-08T07:22:04;36.20;;;25.02;;
45940;SDS011;31858;46.008;8.978;2024-03-08T07:32:08;36.25;;;24.67;;
45940;SDS011;31858;46.008;8.978;2024-03-08T07:42:22;37.50;;;25.33;;
45940;SDS011;31858;46.008;8.978;2024-03-08T07:52:23;37.75;;;24.90;;
45940;SDS011;31858;46.008;8.978;2024-03-08T08:02:26;41.38;;;25.85;;
45940;SDS011;31858;46.008;8.978;2024-03-08T08:12:29;35.25;;;23.85;;
45940;SDS011;31858;46.008;8.978;2024-03-08T08:22:32;33.95;;;25.17;;
45940;SDS011;31858;46.008;8.978;2024-03-08T08:32:34;29.25;;;22.63;;
45940;SDS011;31858;46.008;8.978;2024-03-08T08:42:38;32.03;;;23.50;;
45940;SDS011;31858;46.008;8.978;2024-03-08T08:52:39;32.33;;;22.85;;
45940;SDS011;31858;46.008;8.978;2024-03-08T09:02:44;38.00;;;26.10;;
45940;SDS011;31858;46.008;8.978;2024-03-08T09:12:47;37.08;;;26.70;;
45940;SDS011;31858;46.008;8.978;2024-03-08T09:22:49;32.38;;;22.80;;
45940;SDS011;31858;46.008;8.978;2024-03-08T09:32:51;38.55;;;23.85;;
45940;SDS011;31858;46.008;8.978;2024-03-08T09:42:54;32.30;;;23.48;;
45940;SDS011;31858;46.008;8.978;2024-03-08T09:52:57;38.20;;;23.23;;
45940;SDS011;31858;46.008;8.978;2024-03-08T10:03:01;30.88;;;21.48;;
45940;SDS011;31858;46.008;8.978;2024-03-08T10:13:05;32.63;;;21.92;;
45940;SDS011;31858;46.008;8.978;2024-03-08T10:23:08;31.73;;;22.77;;
45940;SDS011;31858;46.008;8.978;2024-03-08T10:33:10;28.98;;;21.55;;
45940;SDS011;31858;46.008;8.978;2024-03-08T10:43:16;31.45;;;23.42;;
45940;SDS011;31858;46.008;8.978;2024-03-08T10:53:26;40.75;;;28.35;;
45940;SDS011;31858;46.008;8.978;2024-03-08T11:03:46;40.72;;;27.20;;
45940;SDS011;31858;46.008;8.978;2024-03-08T11:13:53;35.25;;;25.85;;
45940;SDS011;31858;46.008;8.978;2024-03-08T11:24:00;38.70;;;25.00;;
45940;SDS011;31858;46.008;8.978;2024-03-08T11:34:02;28.02;;;19.52;;
45940;SDS011;31858;46.008;8.978;2024-03-08T11:44:05;29.60;;;18.63;;
45940;SDS011;31858;46.008;8.978;2024-03-08T11:54:10;25.13;;;18.10;;
45940;SDS011;31858;46.008;8.978;2024-03-08T12:04:14;22.27;;;16.73;;
45940;SDS011;31858;46.008;8.978;2024-03-08T12:14:16;23.77;;;16.90;;
45940;SDS011;31858;46.008;8.978;2024-03-08T12:24:19;21.00;;;15.25;;
45940;SDS011;31858;46.008;8.978;2024-03-08T12:34:21;25.60;;;15.23;;
45940;SDS011;31858;46.008;8.978;2024-03-08T12:44:24;20.85;;;16.63;;
45940;SDS011;31858;46.008;8.978;2024-03-08T12:54:26;23.38;;;16.38;;
45940;SDS011;31858;46.008;8.978;2024-03-08T13:04:29;21.00;;;15.60;;
45940;SDS011;31858;46.008;8.978;2024-03-08T13:14:31;21.05;;;14.32;;
45940;SDS011;31858;46.008;8.978;2024-03-08T13:24:36;18.52;;;13.80;;
45940;SDS011;31858;46.008;8.978;2024-03-08T13:34:40;18.73;;;12.95;;
45940;SDS011;31858;46.008;8.978;2024-03-08T13:44:46;16.58;;;12.95;;
45940;SDS011;31858;46.008;8.978;2024-03-08T13:54:47;18.00;;;12.27;;
45940;SDS011;31858;46.008;8.978;2024-03-08T14:04:51;15.80;;;11.88;;
45940;SDS011;31858;46.008;8.978;2024-03-08T14:14:53;15.07;;;11.55;;
45940;SDS011;31858;46.008;8.978;2024-03-08T14:24:56;15.45;;;11.63;;
45940;SDS011;31858;46.008;8.978;2024-03-08T14:34:57;16.27;;;10.75;;
45940;SDS011;31858;46.008;8.978;2024-03-08T14:45:00;19.33;;;13.32;;
45940;SDS011;31858;46.008;8.978;2024-03-08T14:55:02;19.52;;;11.77;;
45940;SDS011;31858;46.008;8.978;2024-03-08T15:05:06;16.60;;;13.48;;
45940;SDS011;31858;46.008;8.978;2024-03-08T15:15:09;17.00;;;13.63;;
45940;SDS011;31858;46.008;8.978;2024-03-08T15:25:15;16.67;;;13.32;;
45940;SDS011;31858;46.008;8.978;2024-03-08T15:35:20;20.35;;;13.95;;
45940;SDS011;31858;46.008;8.978;2024-03-08T15:45:23;15.95;;;12.77;;
45940;SDS011;31858;46.008;8.978;2024-03-08T15:55:26;22.58;;;15.18;;
45940;SDS011;31858;46.008;8.978;2024-03-08T16:05:31;18.23;;;15.02;;
45940;SDS011;31858;46.008;8.978;2024-03-08T16:15:32;21.40;;;16.17;;
45940;SDS011;31858;46.008;8.978;2024-03-08T16:25:36;21.35;;;15.30;;
45940;SDS011;31858;46.008;8.978;2024-03-08T16:35:38;22.58;;;15.45;;
45940;SDS011;31858;46.008;8.978;2024-03-08T16:45:46;19.58;;;15.32;;
45940;SDS011;31858;46.008;8.978;2024-03-08T16:55:49;22.02;;;15.63;;
45940;SDS011;31858;46.008;8.978;2024-03-08T17:05:52;20.98;;;15.10;;
45940;SDS011;31858;46.008;8.978;2024-03-08T17:15:55;19.40;;;15.70;;
45940;SDS011;31858;46.008;8.978;2024-03-08T17:25:58;20.98;;;16.05;;
45940;SDS011;31858;46.008;8.978;2024-03-08T17:35:59;21.63;;;16.17;;
45940;SDS011;31858;46.008;8.978;2024-03-08T17:46:08;26.98;;;18.80;;
45940;SDS011;31858;46.008;8.978;2024-03-08T17:56:12;21.40;;;16.08;;
45940;SDS011;31858;46.008;8.978;2024-03-08T18:06:16;26.17;;;17.52;;
45940;SDS011;31858;46.008;8.978;2024-03-08T18:16:18;23.58;;;18.25;;
45940;SDS011;31858;46.008;8.978;2024-03-08T18:26:21;25.75;;;20.08;;
45940;SDS011;31858;46.008;8.978;2024-03-08T18:36:23;25.50;;;19.48;;
45940;SDS011;31858;46.008;8.978;2024-03-08T18:46:26;28.00;;;18.98;;
45940;SDS011;31858;46.008;8.978;2024-03-08T18:56:28;26.85;;;19.92;;
45940;SDS011;31858;46.008;8.978;2024-03-08T19:06:31;24.77;;;18.65;;
45940;SDS011;31858;46.008;8.978;2024-03-08T19:16:33;25.73;;;19.75;;
45940;SDS011;31858;46.008;8.978;2024-03-08T19:26:42;27.42;;;18.88;;
45940;SDS011;31858;46.008;8.978;2024-03-08T19:36:46;27.10;;;19.73;;
45940;SDS011;31858;46.008;8.978;2024-03-08T19:46:49;24.92;;;19.33;;
45940;SDS011;31858;46.008;8.978;2024-03-08T19:56:50;25.25;;;18.70;;
45940;SDS011;31858;46.008;8.978;2024-03-08T20:06:54;25.48;;;18.90;;
45940;SDS011;31858;46.008;8.978;2024-03-08T20:16:56;26.77;;;19.67;;
45940;SDS011;31858;46.008;8.978;2024-03-08T20:26:59;30.27;;;19.67;;
45940;SDS011;31858;46.008;8.978;2024-03-08T20:37:02;25.42;;;19.63;;
45940;SDS011;31858;46.008;8.978;2024-03-08T20:47:10;27.65;;;20.83;;
45940;SDS011;31858;46.008;8.978;2024-03-08T20:57:12;24.33;;;18.90;;
45940;SDS011;31858;46.008;8.978;2024-03-08T21:07:14;22.33;;;16.00;;
45940;SDS011;31858;46.008;8.978;2024-03-08T21:17:17;34.92;;;19.35;;
45940;SDS011;31858;46.008;8.978;2024-03-08T21:27:22;19.95;;;16.33;;
45940;SDS011;31858;46.008;8.978;2024-03-08T21:37:24;25.83;;;19.15;;
45940;SDS011;31858;46.008;8.978;2024-03-08T21:47:27;28.73;;;22.13;;
45940;SDS011;31858;46.008;8.978;2024-03-08T21:57:28;24.38;;;19.13;;
45940;SDS011;31858;46.008;8.978;2024-03-08T22:07:31;29.77;;;21.13;;
45940;SDS011;31858;46.008;8.978;2024-03-08T22:17:35;80.35;;;25.38;;
45940;SDS011;31858;46.008;8.978;2024-03-08T22:27:38;213.65;;;30.67;;
45940;SDS011;31858;46.008;8.978;2024-03-08T22:37:41;233.20;;;29.73;;
45940;SDS011;31858;46.008;8.978;2024-03-08T22:47:44;106.88;;;26.20;;
45940;SDS011;31858;46.008;8.978;2024-03-08T22:57:46;56.95;;;23.10;;
45940;SDS011;31858;46.008;8.978;2024-03-08T23:07:50;101.63;;;21.08;;
45940;SDS011;31858;46.008;8.978;2024-03-08T23:17:52;440.05;;;28.10;;
45940;SDS011;31858;46.008;8.978;2024-03-08T23:27:57;287.00;;;24.65;;
45940;SDS011;31858;46.008;8.978;2024-03-08T23:38:00;25.25;;;19.73;;
45940;SDS011;31858;46.008;8.978;2024-03-08T23:48:03;25.73;;;18.90;;
45940;SDS011;31858;46.008;8.978;2024-03-08T23:58:06;21.90;;;16.98;;
